Time;durP1;ratioP1;P1;durP2;ratioP2;P2;SDS_P1;SDS_P2;PMS_P1;PMS_P2;Temp;Humidity;BMP_temperature;BMP_pressure;BME280_temperature;BME280_humidity;BME280_pressure;Samples;Min_cycle;Max_cycle;Signal;HPM_P1;HPM_P2
2022/04/09 00:01:54;;;;;;;2.95;0.90;;;;;;;;;;4975745;28;20073;-79
2022/04/09 00:04:21;;;;;;;1.65;0.75;;;;;;;;;;4973565;28;20051;-78
2022/04/09 00:06:47;;;;;;;2.83;0.75;;;;;;;;;;4965037;28;20055;-78
2022/04/09 00:09:13;;;;;;;2.05;0.90;;;;;;;;;;4974739;28;20043;-78
2022/04/09 00:11:41;;;;;;;2.35;0.88;;;;;;;;;;4975473;28;20047;-77
2022/04/09 00:14:07;;;;;;;2.08;0.80;;;;;;;;;;4975291;28;20057;-78
2022/04/09 00:16:34;;;;;;;2.58;0.70;;;;;;;;;;4975345;28;20499;-78
2022/04/09 00:19:00;;;;;;;3.38;0.88;;;;;;;;;;4974955;28;20051;-78
2022/04/09 00:21:29;;;;;;;2.50;0.80;;;;;;;;;;4991783;28;20050;-78
2022/04/09 00:23:55;;;;;;;2.53;0.82;;;;;;;;;;4981985;28;20457;-77
2022/04/09 00:26:21;;;;;;;3.42;1.00;;;;;;;;;;4975110;28;20077;-78
2022/04/09 00:28:49;;;;;;;2.15;0.80;;;;;;;;;;4974305;28;20422;-78
2022/04/09 00:31:16;;;;;;;3.20;1.00;;;;;;;;;;4976070;28;20047;-78
2022/04/09 00:33:42;;;;;;;3.13;0.85;;;;;;;;;;4972985;28;20047;-78
2022/04/09 00:36:08;;;;;;;2.45;0.98;;;;;;;;;;4975049;28;20535;-78
2022/04/09 00:38:35;;;;;;;2.35;0.88;;;;;;;;;;4977237;28;20051;-78
2022/04/09 00:41:01;;;;;;;2.25;0.80;;;;;;;;;;4978644;28;20521;-78
2022/04/09 00:43:27;;;;;;;1.33;0.70;;;;;;;;;;4984491;28;20047;-78
2022/04/09 00:45:55;;;;;;;2.97;0.82;;;;;;;;;;4973692;28;20055;-78
2022/04/09 00:48:22;;;;;;;2.85;1.00;;;;;;;;;;4973919;28;20051;-78
2022/04/09 00:50:49;;;;;;;3.72;1.00;;;;;;;;;;4974902;28;20043;-77
2022/04/09 00:53:16;;;;;;;4.07;0.90;;;;;;;;;;4973394;28;20512;-78
2022/04/09 00:58:34;;;;;;;2.97;0.90;;;;;;;;;;4964519;28;20526;-78
2022/04/09 01:01:03;;;;;;;2.58;0.80;;;;;;;;;;4974546;28;20506;-78
2022/04/09 01:03:29;;;;;;;2.60;1.00;;;;;;;;;;4972799;28;20112;-77
2022/04/09 01:05:55;;;;;;;3.20;0.98;;;;;;;;;;4974689;28;20082;-78
2022/04/09 01:08:22;;;;;;;2.88;0.88;;;;;;;;;;4974419;28;20047;-77
2022/04/09 01:10:50;;;;;;;3.28;1.00;;;;;;;;;;4974758;28;20042;-78
2022/04/09 01:13:16;;;;;;;;;;;;;;;;;;4973582;28;20054;-78
2022/04/09 01:15:42;;;;;;;3.13;0.85;;;;;;;;;;4974545;28;19929;-78
2022/04/09 01:18:10;;;;;;;2.33;0.85;;;;;;;;;;4974922;28;20060;-78
2022/04/09 01:20:37;;;;;;;1.42;0.80;;;;;;;;;;4974498;28;20042;-78
2022/04/09 01:23:04;;;;;;;3.92;1.00;;;;;;;;;;4972887;28;20069;-78
2022/04/09 01:25:31;;;;;;;1.05;0.70;;;;;;;;;;4975933;28;20300;-78
2022/04/09 01:27:57;;;;;;;3.00;0.70;;;;;;;;;;4977541;28;20047;-78
2022/04/09 01:30:24;;;;;;;1.95;0.82;;;;;;;;;;4973345;28;20053;-78
2022/04/09 01:32:50;;;;;;;3.25;1.10;;;;;;;;;;4968726;28;20050;-78
2022/04/09 01:35:16;;;;;;;1.88;0.90;;;;;;;;;;4974298;28;20055;-78
2022/04/09 01:37:43;;;;;;;3.60;0.80;;;;;;;;;;4974409;28;20084;-78
2022/04/09 01:40:11;;;;;;;2.30;0.80;;;;;;;;;;4984421;28;20054;-78
2022/04/09 01:42:37;;;;;;;2.20;0.93;;;;;;;;;;4992258;28;20050;-78
2022/04/09 01:45:04;;;;;;;2.95;0.73;;;;;;;;;;4974846;28;20105;-78
2022/04/09 01:47:30;;;;;;;3.03;1.10;;;;;;;;;;4973747;28;20064;-78
2022/04/09 01:49:56;;;;;;;2.55;0.75;;;;;;;;;;4975033;28;20046;-78
2022/04/09 01:52:23;;;;;;;2.25;0.75;;;;;;;;;;4973705;28;20518;-78
2022/04/09 01:54:49;;;;;;;2.75;0.93;;;;;;;;;;4974524;28;20051;-78
2022/04/09 01:57:17;;;;;;;3.08;0.73;;;;;;;;;;4972807;28;20407;-79
2022/04/09 01:59:44;;;;;;;2.13;0.70;;;;;;;;;;4972668;28;20051;-78
2022/04/09 02:02:11;;;;;;;2.00;0.80;;;;;;;;;;4973144;28;20216;-78
2022/04/09 02:04:37;;;;;;;1.80;0.73;;;;;;;;;;4972736;28;20109;-78
2022/04/09 02:07:03;;;;;;;1.67;0.75;;;;;;;;;;4972655;28;20057;-78
2022/04/09 02:09:30;;;;;;;2.08;0.82;;;;;;;;;;4973031;28;20077;-78
2022/04/09 02:11:56;;;;;;;1.95;0.85;;;;;;;;;;4972265;28;20054;-78
2022/04/09 02:14:24;;;;;;;3.38;0.73;;;;;;;;;;4971890;28;20073;-78
2022/04/09 02:16:50;;;;;;;2.30;0.77;;;;;;;;;;4972805;28;20057;-78
2022/04/09 02:19:17;;;;;;;1.67;0.90;;;;;;;;;;4972450;28;20518;-79
2022/04/09 02:21:43;;;;;;;2.92;0.70;;;;;;;;;;4971512;28;20038;-78
2022/04/09 02:24:10;;;;;;;2.33;0.70;;;;;;;;;;4972323;28;20053;-78
2022/04/09 02:26:36;;;;;;;3.78;0.85;;;;;;;;;;4972474;28;20337;-78
2022/04/09 02:29:03;;;;;;;1.95;0.90;;;;;;;;;;4972346;28;20080;-77
2022/04/09 02:31:31;;;;;;;1.77;0.80;;;;;;;;;;4972639;28;20070;-78
2022/04/09 02:33:57;;;;;;;2.00;0.70;;;;;;;;;;4966378;28;20047;-78
2022/04/09 02:36:24;;;;;;;1.58;0.60;;;;;;;;;;4971317;28;20050;-79
2022/04/09 02:38:50;;;;;;;2.35;0.80;;;;;;;;;;4971903;28;20102;-78
2022/04/09 02:41:16;;;;;;;0.95;0.50;;;;;;;;;;4971485;28;20529;-78
2022/04/09 02:43:43;;;;;;;2.45;0.85;;;;;;;;;;4971521;28;20227;-78
2022/04/09 02:46:10;;;;;;;2.97;1.02;;;;;;;;;;4972988;28;20082;-78
2022/04/09 02:48:38;;;;;;;2.08;0.90;;;;;;;;;;4972489;28;20043;-78
2022/04/09 02:51:04;;;;;;;1.85;0.80;;;;;;;;;;4986713;28;20051;-78
2022/04/09 02:53:30;;;;;;;3.45;0.90;;;;;;;;;;4972691;28;20057;-78
2022/04/09 02:55:56;;;;;;;3.10;0.88;;;;;;;;;;4972815;28;20057;-78
2022/04/09 02:58:23;;;;;;;2.03;0.88;;;;;;;;;;4980202;28;20050;-78
2022/04/09 03:00:49;;;;;;;2.08;0.90;;;;;;;;;;4972047;28;20049;-77
2022/04/09 03:03:16;;;;;;;2.35;0.80;;;;;;;;;;4976397;28;20154;-78
2022/04/09 03:05:43;;;;;;;1.48;0.70;;;;;;;;;;4972308;28;20554;-77
2022/04/09 03:08:10;;;;;;;2.78;0.90;;;;;;;;;;4971958;28;20503;-78
2022/04/09 03:10:36;;;;;;;1.35;0.70;;;;;;;;;;4971817;28;20050;-78
2022/04/09 03:13:04;;;;;;;2.72;0.90;;;;;;;;;;4970392;28;20081;-78
2022/04/09 03:15:30;;;;;;;1.77;0.80;;;;;;;;;;4972176;28;20625;-79
2022/04/09 03:17:57;;;;;;;1.15;0.73;;;;;;;;;;4972211;28;20047;-78
2022/04/09 03:20:23;;;;;;;3.42;0.80;;;;;;;;;;4972276;28;20141;-78
2022/04/09 03:22:51;;;;;;;2.97;0.80;;;;;;;;;;4970861;28;20055;-78
2022/04/09 03:25:17;;;;;;;1.85;0.75;;;;;;;;;;4971269;28;20057;-78
2022/04/09 03:27:44;;;;;;;2.22;0.85;;;;;;;;;;4985223;28;20429;-78
2022/04/09 03:30:10;;;;;;;1.75;0.60;;;;;;;;;;4977584;28;20682;-78
2022/04/09 03:32:37;;;;;;;2.13;0.85;;;;;;;;;;4971828;28;20138;-77
2022/04/09 03:35:03;;;;;;;1.52;0.80;;;;;;;;;;4972615;28;20062;-79
2022/04/09 03:37:30;;;;;;;2.15;0.70;;;;;;;;;;4972043;28;20054;-78
2022/04/09 03:39:58;;;;;;;2.70;0.80;;;;;;;;;;4975417;28;20046;-78
2022/04/09 03:42:24;;;;;;;2.95;0.90;;;;;;;;;;4982563;28;20057;-78
2022/04/09 03:44:50;;;;;;;1.08;0.70;;;;;;;;;;4971751;28;20055;-78
2022/04/09 03:57:38;;;;;;;2.38;0.80;;;;;;;;;;5044767;23;20481;-77
2022/04/09 04:00:05;;;;;;;2.92;0.90;;;;;;;;;;4993184;28;20050;-77
2022/04/09 04:02:32;;;;;;;2.33;0.90;;;;;;;;;;4992911;28;20053;-77
2022/04/09 04:05:02;;;;;;;3.15;0.70;;;;;;;;;;4994899;28;20085;-76
2022/04/09 04:07:29;;;;;;;1.98;0.82;;;;;;;;;;4996770;28;20050;-77
2022/04/09 04:09:55;;;;;;;2.05;0.75;;;;;;;;;;4996448;28;20080;-77
2022/04/09 04:12:24;;;;;;;3.47;0.90;;;;;;;;;;5010102;28;20134;-77
2022/04/09 04:14:52;;;;;;;2.85;0.80;;;;;;;;;;5016214;28;20050;-77
2022/04/09 04:17:19;;;;;;;1.60;0.70;;;;;;;;;;5034920;23;20053;-77
2022/04/09 04:19:45;;;;;;;2.25;0.80;;;;;;;;;;4996254;28;20129;-76
2022/04/09 04:22:12;;;;;;;2.35;0.82;;;;;;;;;;4996463;28;20042;-77
2022/04/09 04:24:39;;;;;;;1.17;0.73;;;;;;;;;;4996764;28;20082;-77
2022/04/09 04:27:05;;;;;;;2.38;0.88;;;;;;;;;;4996310;28;20061;-77
2022/04/09 04:29:32;;;;;;;2.33;0.93;;;;;;;;;;4996396;28;20494;-77
2022/04/09 04:32:00;;;;;;;2.10;0.75;;;;;;;;;;4996780;28;20074;-77
2022/04/09 04:34:27;;;;;;;1.73;0.70;;;;;;;;;;4996752;28;20085;-77
2022/04/09 04:36:53;;;;;;;3.05;0.90;;;;;;;;;;4997698;28;20415;-77
2022/04/09 04:39:20;;;;;;;2.13;1.00;;;;;;;;;;4996077;28;20050;-77
2022/04/09 04:41:46;;;;;;;3.35;0.93;;;;;;;;;;4996294;28;20133;-77
2022/04/09 04:44:13;;;;;;;3.83;1.02;;;;;;;;;;4997208;28;20409;-77
2022/04/09 04:46:41;;;;;;;1.38;0.63;;;;;;;;;;5334330;23;20085;-77
2022/04/09 04:49:09;;;;;;;2.10;0.80;;;;;;;;;;4998016;28;20074;-77
2022/04/09 04:51:36;;;;;;;2.72;1.00;;;;;;;;;;5011354;28;20054;-76
2022/04/09 04:54:13;;;;;;;2.42;1.00;;;;;;;;;;4998927;28;20050;-77
2022/04/09 04:56:39;;;;;;;2.42;0.90;;;;;;;;;;4984454;28;20164;-77
2022/04/09 04:59:07;;;;;;;2.65;0.80;;;;;;;;;;5011428;28;20061;-77
2022/04/09 05:01:34;;;;;;;1.70;0.77;;;;;;;;;;4997377;28;20046;-77
2022/04/09 05:04:01;;;;;;;3.30;0.82;;;;;;;;;;4997330;28;20085;-77
2022/04/09 05:09:01;;;;;;;3.15;1.17;;;;;;;;;;4973583;28;20051;-78
2022/04/09 05:11:27;;;;;;;4.25;1.17;;;;;;;;;;4976651;28;20135;-77
2022/04/09 05:13:54;;;;;;;2.55;0.90;;;;;;;;;;4976535;28;20141;-78
2022/04/09 05:16:20;;;;;;;3.50;1.00;;;;;;;;;;4977308;28;20054;-77
2022/04/09 05:18:46;;;;;;;2.15;0.90;;;;;;;;;;4977227;28;20054;-77
2022/04/09 05:21:13;;;;;;;1.88;0.82;;;;;;;;;;4976502;28;20055;-77
2022/04/09 05:23:40;;;;;;;4.25;1.20;;;;;;;;;;4976190;28;20046;-77
2022/04/09 05:26:12;;;;;;;3.53;1.17;;;;;;;;;;4976328;28;20046;-77
2022/04/09 05:28:38;;;;;;;4.25;1.00;;;;;;;;;;4976169;28;20054;-77
2022/04/09 05:31:05;;;;;;;3.10;0.88;;;;;;;;;;4976159;28;20082;-77
2022/04/09 05:33:34;;;;;;;2.38;1.00;;;;;;;;;;4975951;28;20054;-78
2022/04/09 05:36:02;;;;;;;2.75;0.95;;;;;;;;;;4976207;28;20043;-77
2022/04/09 05:38:33;;;;;;;2.80;0.88;;;;;;;;;;4976276;28;20058;-77
2022/04/09 05:41:03;;;;;;;2.22;0.90;;;;;;;;;;4975880;28;20051;-77
2022/04/09 05:43:32;;;;;;;3.08;0.88;;;;;;;;;;4977180;28;20101;-77
2022/04/09 05:45:58;;;;;;;2.20;0.88;;;;;;;;;;4976590;28;20050;-77
2022/04/09 05:48:25;;;;;;;2.60;0.90;;;;;;;;;;4976405;28;20056;-77
2022/04/09 05:50:51;;;;;;;2.75;0.98;;;;;;;;;;4976430;28;20063;-78
2022/04/09 05:53:18;;;;;;;2.92;1.00;;;;;;;;;;4975381;28;20047;-78
2022/04/09 05:55:46;;;;;;;2.53;0.80;;;;;;;;;;4976067;28;20046;-77
2022/04/09 05:58:13;;;;;;;2.17;0.90;;;;;;;;;;4974610;28;20046;-73
2022/04/09 06:00:40;;;;;;;4.32;1.17;;;;;;;;;;4972714;28;20065;-72
2022/04/09 06:03:07;;;;;;;2.63;0.88;;;;;;;;;;4972964;28;20050;-72
2022/04/09 06:05:34;;;;;;;2.63;1.00;;;;;;;;;;4972842;28;20066;-73
2022/04/09 06:08:01;;;;;;;2.75;1.00;;;;;;;;;;4974468;28;20418;-77
2022/04/09 06:10:27;;;;;;;3.75;0.80;;;;;;;;;;4974883;28;20053;-77
2022/04/09 06:12:53;;;;;;;5.03;1.20;;;;;;;;;;4974062;28;20347;-77
2022/04/09 06:15:22;;;;;;;5.38;1.00;;;;;;;;;;4974201;28;20510;-77
2022/04/09 06:17:52;;;;;;;1.75;0.90;;;;;;;;;;4974289;28;20517;-77
2022/04/09 06:20:19;;;;;;;4.05;1.08;;;;;;;;;;4974821;28;20051;-77
2022/04/09 06:22:45;;;;;;;5.38;1.08;;;;;;;;;;4974425;28;20453;-77
2022/04/09 06:25:11;;;;;;;4.03;1.13;;;;;;;;;;4974728;28;20051;-77
2022/04/09 06:27:39;;;;;;;6.25;1.20;;;;;;;;;;4974078;28;20502;-77
2022/04/09 06:30:05;;;;;;;2.95;1.10;;;;;;;;;;4974594;28;20050;-77
2022/04/09 06:32:32;;;;;;;3.95;1.20;;;;;;;;;;4973506;28;20414;-77
2022/04/09 06:34:59;;;;;;;4.13;1.10;;;;;;;;;;4973294;28;20053;-77
2022/04/09 06:37:26;;;;;;;3.45;1.10;;;;;;;;;;4973577;28;20491;-77
2022/04/09 06:39:52;;;;;;;4.35;1.25;;;;;;;;;;4973914;28;20154;-77
2022/04/09 06:42:18;;;;;;;5.78;1.40;;;;;;;;;;4974066;28;20073;-77
2022/04/09 06:44:46;;;;;;;6.25;1.30;;;;;;;;;;4973670;28;20515;-77
2022/04/09 06:47:12;;;;;;;5.65;1.20;;;;;;;;;;4968500;28;20051;-78
2022/04/09 06:49:39;;;;;;;4.88;1.20;;;;;;;;;;4973417;28;20047;-78
2022/04/09 06:52:07;;;;;;;7.03;1.25;;;;;;;;;;4973889;28;20047;-77
2022/04/09 06:54:33;;;;;;;5.38;1.10;;;;;;;;;;4973460;28;20072;-77
2022/04/09 06:57:00;;;;;;;4.63;1.30;;;;;;;;;;4973661;28;20054;-78
2022/04/09 06:59:26;;;;;;;5.53;1.25;;;;;;;;;;4973834;28;20047;-77
2022/04/09 07:01:52;;;;;;;4.47;1.20;;;;;;;;;;4973481;28;20053;-78
2022/04/09 07:04:19;;;;;;;3.67;0.93;;;;;;;;;;4973888;28;20055;-77
2022/04/09 07:06:46;;;;;;;4.55;1.30;;;;;;;;;;4975306;28;20061;-77
2022/04/09 07:09:14;;;;;;;3.67;1.02;;;;;;;;;;4974929;28;20522;-76
2022/04/09 07:11:40;;;;;;;3.42;1.00;;;;;;;;;;4967779;28;20050;-77
2022/04/09 07:14:06;;;;;;;4.72;1.10;;;;;;;;;;4972560;28;20059;-76
2022/04/09 07:16:34;;;;;;;4.43;1.10;;;;;;;;;;4971919;28;20051;-76
2022/04/09 07:19:01;;;;;;;5.20;1.23;;;;;;;;;;4976390;28;20053;-77
2022/04/09 07:21:27;;;;;;;3.88;1.10;;;;;;;;;;4973077;28;20055;-76
2022/04/09 07:23:54;;;;;;;9.52;1.48;;;;;;;;;;4972583;28;20053;-77
2022/04/09 07:26:22;;;;;;;5.20;1.10;;;;;;;;;;4973490;28;20074;-76
2022/04/09 07:28:48;;;;;;;5.22;1.23;;;;;;;;;;4972911;28;20061;-77
2022/04/09 07:31:14;;;;;;;3.55;0.90;;;;;;;;;;4972889;28;20054;-77
2022/04/09 07:33:41;;;;;;;3.08;1.10;;;;;;;;;;4972821;28;20047;-77
2022/04/09 07:36:07;;;;;;;4.25;1.25;;;;;;;;;;4973439;28;20057;-77
2022/04/09 07:38:34;;;;;;;5.03;1.30;;;;;;;;;;4973306;28;20051;-77
2022/04/09 07:41:00;;;;;;;2.95;1.10;;;;;;;;;;4976497;28;20051;-77
2022/04/09 07:43:29;;;;;;;2.97;1.08;;;;;;;;;;4976446;28;20062;-77
2022/04/09 07:45:56;;;;;;;3.58;1.20;;;;;;;;;;4981240;28;20051;-75
2022/04/09 07:48:25;;;;;;;4.40;1.20;;;;;;;;;;4983533;28;20056;-77
2022/04/09 07:50:51;;;;;;;4.22;1.17;;;;;;;;;;4989396;28;20054;-75
2022/04/09 07:53:18;;;;;;;6.32;1.20;;;;;;;;;;4978844;28;20073;-73
2022/04/09 07:55:44;;;;;;;5.60;1.27;;;;;;;;;;4974734;28;20418;-77
2022/04/09 07:58:14;;;;;;;6.38;1.40;;;;;;;;;;4976562;28;20054;-76
2022/04/09 08:00:44;;;;;;;5.78;1.27;;;;;;;;;;4976527;28;20058;-76
2022/04/09 08:03:10;;;;;;;4.82;1.23;;;;;;;;;;4975366;28;20043;-76
2022/04/09 08:05:36;;;;;;;4.20;1.20;;;;;;;;;;4975888;28;20510;-76
2022/04/09 08:08:03;;;;;;;6.43;1.27;;;;;;;;;;4975842;28;20520;-76
2022/04/09 08:10:30;;;;;;;4.10;1.20;;;;;;;;;;4975986;28;20059;-76
2022/04/09 08:12:56;;;;;;;7.35;1.20;;;;;;;;;;4975369;28;20061;-77
2022/04/09 08:15:23;;;;;;;3.97;1.08;;;;;;;;;;4973588;28;20062;-76
2022/04/09 08:17:54;;;;;;;2.88;1.00;;;;;;;;;;4976053;28;20050;-76
2022/04/09 08:20:20;;;;;;;3.00;1.00;;;;;;;;;;4972272;28;20047;-76
2022/04/09 08:22:47;;;;;;;4.47;1.27;;;;;;;;;;4971488;28;20047;-76
2022/04/09 08:25:13;;;;;;;5.05;1.20;;;;;;;;;;4975167;28;20089;-77
2022/04/09 08:27:40;;;;;;;4.88;1.27;;;;;;;;;;4976023;28;20137;-77
2022/04/09 08:30:07;;;;;;;5.57;1.40;;;;;;;;;;4975495;28;20502;-76
2022/04/09 08:32:33;;;;;;;4.50;1.00;;;;;;;;;;4974830;28;21115;-76
2022/04/09 08:35:01;;;;;;;5.97;1.20;;;;;;;;;;4975380;28;20065;-76
2022/04/09 08:37:27;;;;;;;;;;;;;;;;;;4975309;28;20638;-76
2022/04/09 08:39:55;;;;;;;5.32;1.20;;;;;;;;;;4975468;28;20016;-76
2022/04/09 08:42:22;;;;;;;4.45;1.30;;;;;;;;;;4973569;28;20051;-76
2022/04/09 08:44:49;;;;;;;2.67;1.00;;;;;;;;;;4974528;28;20097;-76
2022/04/09 08:47:15;;;;;;;3.53;1.00;;;;;;;;;;4974921;28;20059;-76
2022/04/09 08:49:44;;;;;;;4.80;1.20;;;;;;;;;;4971124;28;20049;-76
2022/04/09 08:52:12;;;;;;;6.85;1.20;;;;;;;;;;4974585;28;20525;-76
2022/04/09 08:54:39;;;;;;;7.50;1.30;;;;;;;;;;4974885;28;20053;-76
2022/04/09 08:57:06;;;;;;;3.70;1.05;;;;;;;;;;4974714;28;20606;-76
2022/04/09 08:59:32;;;;;;;5.43;1.30;;;;;;;;;;4974971;28;20039;-76
2022/04/09 09:01:59;;;;;;;7.22;1.20;;;;;;;;;;4975121;28;20117;-77
2022/04/09 09:04:25;;;;;;;3.20;0.93;;;;;;;;;;4972995;28;20047;-76
2022/04/09 09:06:52;;;;;;;3.72;1.20;;;;;;;;;;4974894;28;20060;-77
2022/04/09 09:09:29;;;;;;;4.13;0.95;;;;;;;;;;4974407;28;20050;-76
2022/04/09 09:11:56;;;;;;;2.53;0.98;;;;;;;;;;4975243;28;20093;-76
2022/04/09 09:14:27;;;;;;;1.70;0.75;;;;;;;;;;4974238;28;20057;-76
2022/04/09 09:17:26;;;;;;;3.65;1.08;;;;;;;;;;4975631;28;20051;-77
2022/04/09 09:19:52;;;;;;;3.35;1.20;;;;;;;;;;4976183;28;20412;-76
2022/04/09 09:28:24;;;;;;;3.85;1.10;;;;;;;;;;4978123;28;20049;-76
2022/04/09 09:30:51;;;;;;;2.40;0.90;;;;;;;;;;4975724;28;20105;-76
2022/04/09 09:33:17;;;;;;;2.92;0.88;;;;;;;;;;4976027;28;20049;-76
2022/04/09 09:35:47;;;;;;;3.75;1.00;;;;;;;;;;4976068;28;20054;-76
2022/04/09 09:38:21;;;;;;;5.35;1.17;;;;;;;;;;4975709;28;20057;-76
2022/04/09 09:40:47;;;;;;;3.33;1.10;;;;;;;;;;4975702;28;20129;-76
2022/04/09 09:43:14;;;;;;;3.13;1.00;;;;;;;;;;4975381;28;20414;-76
2022/04/09 09:48:22;;;;;;;4.53;1.00;;;;;;;;;;4969079;28;20047;-79
2022/04/09 09:50:50;;;;;;;3.72;1.00;;;;;;;;;;4978442;28;20413;-79
2022/04/09 09:53:26;;;;;;;2.80;1.17;;;;;;;;;;4988217;28;20046;-79
2022/04/09 09:55:52;;;;;;;2.42;0.90;;;;;;;;;;4975268;28;20051;-79
2022/04/09 09:58:21;;;;;;;4.05;1.23;;;;;;;;;;4975837;28;20057;-78
2022/04/09 10:00:48;;;;;;;3.58;1.00;;;;;;;;;;4974953;28;20105;-78
2022/04/09 10:03:16;;;;;;;5.78;1.10;;;;;;;;;;4974114;28;20051;-78
2022/04/09 10:05:42;;;;;;;;;;;;;;;;;;4975751;28;20146;-78
2022/04/09 10:08:10;;;;;;;2.22;0.70;;;;;;;;;;4975181;28;19934;-78
2022/04/09 10:10:37;;;;;;;3.42;1.10;;;;;;;;;;4975284;28;20051;-79
2022/04/09 10:13:04;;;;;;;2.40;0.93;;;;;;;;;;4974361;28;20490;-78
2022/04/09 10:15:31;;;;;;;2.90;1.00;;;;;;;;;;4975186;28;20050;-79
2022/04/09 10:17:58;;;;;;;2.83;0.90;;;;;;;;;;4975342;28;20057;-78
2022/04/09 10:20:25;;;;;;;6.20;1.17;;;;;;;;;;4975203;28;20042;-78
2022/04/09 10:22:53;;;;;;;2.28;0.82;;;;;;;;;;4974766;28;20097;-78
2022/04/09 10:25:21;;;;;;;3.33;0.80;;;;;;;;;;4975278;28;20056;-79
2022/04/09 10:27:52;;;;;;;3.28;0.95;;;;;;;;;;4974249;28;20507;-78
2022/04/09 10:30:19;;;;;;;2.15;0.88;;;;;;;;;;4975286;28;20051;-78
2022/04/09 10:32:47;;;;;;;3.78;1.00;;;;;;;;;;4974398;28;20404;-78
2022/04/09 10:35:22;;;;;;;1.95;0.95;;;;;;;;;;4974711;28;20050;-79
2022/04/09 10:38:03;;;;;;;2.35;0.90;;;;;;;;;;4974970;28;20050;-79
2022/04/09 10:40:31;;;;;;;2.70;0.82;;;;;;;;;;4974131;28;20050;-78
2022/04/09 10:42:58;;;;;;;3.28;0.93;;;;;;;;;;4974079;28;20051;-79
2022/04/09 10:45:25;;;;;;;2.08;0.70;;;;;;;;;;4974659;28;20084;-78
2022/04/09 10:48:07;;;;;;;2.58;0.80;;;;;;;;;;4974677;28;20051;-79
2022/04/09 10:50:53;;;;;;;1.88;0.90;;;;;;;;;;4974786;28;20054;-79
2022/04/09 10:53:20;;;;;;;2.38;0.90;;;;;;;;;;4954372;29;20491;-78
2022/04/09 10:56:09;;;;;;;2.72;0.88;;;;;;;;;;4954667;28;20051;-76
2022/04/09 10:58:58;;;;;;;2.53;1.00;;;;;;;;;;4973068;28;20054;-76
2022/04/09 11:01:43;;;;;;;3.92;0.98;;;;;;;;;;4969810;28;20050;-76
2022/04/09 11:04:35;;;;;;;3.55;1.00;;;;;;;;;;4962186;28;20043;-76
2022/04/09 11:07:02;;;;;;;2.92;0.73;;;;;;;;;;4973426;28;20054;-76
2022/04/09 11:09:40;;;;;;;3.05;0.90;;;;;;;;;;4972515;28;20486;-76
2022/04/09 11:12:08;;;;;;;3.63;0.90;;;;;;;;;;4972174;28;20058;-76
2022/04/09 11:14:34;;;;;;;;;;;;;;;;;;4975673;28;20043;-76
2022/04/09 11:17:00;;;;;;;4.10;1.00;;;;;;;;;;4977418;28;19922;-76
2022/04/09 11:19:26;;;;;;;1.20;0.85;;;;;;;;;;4976981;28;20057;-76
2022/04/09 11:21:53;;;;;;;2.13;0.90;;;;;;;;;;4976537;28;20051;-76
2022/04/09 11:24:19;;;;;;;1.65;0.77;;;;;;;;;;4976288;28;20067;-76
2022/04/09 11:26:54;;;;;;;3.47;0.80;;;;;;;;;;4976786;28;20053;-76
2022/04/09 11:29:22;;;;;;;2.17;0.80;;;;;;;;;;4967553;28;20050;-76
2022/04/09 11:31:48;;;;;;;3.60;0.93;;;;;;;;;;4958241;28;20047;-76
2022/04/09 11:34:15;;;;;;;1.73;0.80;;;;;;;;;;4965819;28;20050;-76
2022/04/09 11:36:41;;;;;;;3.00;0.80;;;;;;;;;;4976332;28;20455;-76
2022/04/09 11:39:07;;;;;;;4.20;0.98;;;;;;;;;;4975961;28;20050;-76
2022/04/09 11:41:34;;;;;;;6.32;0.93;;;;;;;;;;4976192;28;20514;-76
2022/04/09 11:44:00;;;;;;;2.85;0.70;;;;;;;;;;4975854;28;20047;-76
2022/04/09 11:46:32;;;;;;;2.03;0.68;;;;;;;;;;4975885;28;20051;-76
2022/04/09 11:49:01;;;;;;;1.10;0.60;;;;;;;;;;4976002;28;20055;-76
2022/04/09 11:51:28;;;;;;;2.75;0.80;;;;;;;;;;4976233;28;20055;-76
2022/04/09 11:54:13;;;;;;;2.70;0.90;;;;;;;;;;4971009;28;20106;-76
2022/04/09 11:56:40;;;;;;;3.42;0.80;;;;;;;;;;4974529;28;20054;-76
2022/04/09 11:59:10;;;;;;;2.10;0.93;;;;;;;;;;4975641;28;20511;-76
2022/04/09 12:01:37;;;;;;;4.70;0.93;;;;;;;;;;4963719;28;20047;-76
2022/04/09 12:04:04;;;;;;;;;;;;;;;;;;4965264;28;20054;-76
2022/04/09 12:06:30;;;;;;;3.22;0.90;;;;;;;;;;4976226;28;19922;-77
2022/04/09 12:08:57;;;;;;;3.97;1.00;;;;;;;;;;4972017;28;20051;-77
2022/04/09 12:11:23;;;;;;;3.25;1.05;;;;;;;;;;4974238;28;20059;-76
2022/04/09 12:13:49;;;;;;;4.07;0.80;;;;;;;;;;4975262;28;20149;-76
2022/04/09 12:16:16;;;;;;;2.78;0.85;;;;;;;;;;4973502;28;20145;-76
2022/04/09 12:18:44;;;;;;;3.90;0.88;;;;;;;;;;4970691;28;20054;-76
2022/04/09 12:21:10;;;;;;;;;;;;;;;;;;4975024;28;20058;-76
2022/04/09 12:23:37;;;;;;;5.50;1.00;;;;;;;;;;4974741;28;20021;-76
2022/04/09 12:26:04;;;;;;;4.38;0.90;;;;;;;;;;4974309;28;20053;-76
2022/04/09 12:28:32;;;;;;;2.75;0.90;;;;;;;;;;4974901;28;20515;-76
2022/04/09 12:31:00;;;;;;;;;;;;;;;;;;4975386;28;20517;-76
2022/04/09 12:33:26;;;;;;;4.82;1.00;;;;;;;;;;4974296;28;20282;-76
2022/04/09 12:36:05;;;;;;;2.53;0.70;;;;;;;;;;4975173;28;20055;-76
2022/04/09 12:38:33;;;;;;;4.22;0.82;;;;;;;;;;4974993;28;20050;-76
2022/04/09 12:41:01;;;;;;;3.72;1.10;;;;;;;;;;4974748;28;20105;-76
2022/04/09 12:43:28;;;;;;;;;;;;;;;;;;4974369;28;20055;-76
2022/04/09 12:46:01;;;;;;;2.55;0.80;;;;;;;;;;4975132;28;19929;-76
2022/04/09 12:48:36;;;;;;;3.50;0.98;;;;;;;;;;4973568;28;20071;-77
2022/04/09 12:51:04;;;;;;;2.95;1.00;;;;;;;;;;4972932;28;20422;-75
2022/04/09 12:53:31;;;;;;;5.35;1.13;;;;;;;;;;4974128;28;20046;-76
2022/04/09 12:55:57;;;;;;;4.20;1.00;;;;;;;;;;4975358;28;20058;-76
2022/04/09 12:58:23;;;;;;;3.30;0.98;;;;;;;;;;4973460;28;20054;-77
2022/04/09 13:00:50;;;;;;;3.70;0.90;;;;;;;;;;4974739;28;20332;-76
2022/04/09 13:03:17;;;;;;;3.13;1.05;;;;;;;;;;4974504;28;20046;-76
2022/04/09 13:05:43;;;;;;;4.60;0.95;;;;;;;;;;4974527;28;20137;-76
2022/04/09 13:08:11;;;;;;;2.58;0.93;;;;;;;;;;4974568;28;20055;-76
2022/04/09 13:10:37;;;;;;;5.88;1.20;;;;;;;;;;4975010;28;20060;-76
2022/04/09 13:13:04;;;;;;;4.90;1.17;;;;;;;;;;4976610;28;20051;-77
2022/04/09 13:15:31;;;;;;;3.30;1.10;;;;;;;;;;4977273;28;20517;-76
2022/04/09 13:17:57;;;;;;;4.43;1.15;;;;;;;;;;4977861;28;20454;-77
2022/04/09 13:20:24;;;;;;;4.25;1.10;;;;;;;;;;4977108;28;20391;-76
2022/04/09 13:22:50;;;;;;;4.93;1.00;;;;;;;;;;4976688;28;20130;-76
2022/04/09 13:25:18;;;;;;;3.90;0.93;;;;;;;;;;4977525;28;20483;-77
2022/04/09 13:27:45;;;;;;;4.55;1.17;;;;;;;;;;4977364;28;20442;-77
2022/04/09 13:30:12;;;;;;;3.92;1.10;;;;;;;;;;4973203;28;20051;-76
2022/04/09 13:32:39;;;;;;;3.78;1.10;;;;;;;;;;4975749;28;20375;-76
2022/04/09 13:35:06;;;;;;;3.22;1.00;;;;;;;;;;4970273;28;20050;-77
2022/04/09 13:37:33;;;;;;;3.33;0.93;;;;;;;;;;4977246;28;20051;-77
2022/04/09 13:39:59;;;;;;;4.38;1.00;;;;;;;;;;4977439;28;20058;-77
2022/04/09 13:42:27;;;;;;;5.75;1.00;;;;;;;;;;4977960;28;20057;-77
2022/04/09 13:44:53;;;;;;;4.05;1.20;;;;;;;;;;4976802;28;20392;-77
2022/04/09 13:47:20;;;;;;;4.00;1.10;;;;;;;;;;4976911;28;20522;-77
2022/04/09 13:49:46;;;;;;;5.07;1.30;;;;;;;;;;4977052;28;20502;-77
2022/04/09 13:52:12;;;;;;;4.88;1.27;;;;;;;;;;4976972;28;20057;-77
2022/04/09 13:54:39;;;;;;;4.60;1.10;;;;;;;;;;4976607;28;20062;-77
2022/04/09 13:57:05;;;;;;;6.65;1.30;;;;;;;;;;4976950;28;20054;-77
2022/04/09 13:59:33;;;;;;;5.70;1.52;;;;;;;;;;4976447;28;20118;-77
2022/04/09 14:01:59;;;;;;;5.72;1.40;;;;;;;;;;4976702;28;20054;-77
2022/04/09 14:04:28;;;;;;;4.75;1.25;;;;;;;;;;4976482;28;20057;-77
2022/04/09 14:06:54;;;;;;;6.40;1.13;;;;;;;;;;4976549;28;20344;-77
2022/04/09 14:09:21;;;;;;;3.67;1.13;;;;;;;;;;4976992;28;20051;-77
2022/04/09 14:11:47;;;;;;;5.05;1.25;;;;;;;;;;4976210;28;20047;-77
2022/04/09 14:14:15;;;;;;;8.35;1.40;;;;;;;;;;4976240;28;20043;-77
2022/04/09 14:16:43;;;;;;;6.43;1.27;;;;;;;;;;4976064;28;20050;-78
2022/04/09 14:19:10;;;;;;;4.03;1.00;;;;;;;;;;4975893;28;20054;-77
2022/04/09 14:21:36;;;;;;;5.85;1.45;;;;;;;;;;4976429;28;20053;-78
2022/04/09 14:24:03;;;;;;;4.50;1.15;;;;;;;;;;4975566;28;20043;-77
2022/04/09 14:26:30;;;;;;;4.78;1.17;;;;;;;;;;4977265;28;20106;-77
2022/04/09 14:28:58;;;;;;;4.15;1.20;;;;;;;;;;4976295;28;20051;-77
2022/04/09 14:31:25;;;;;;;5.78;1.27;;;;;;;;;;4976814;28;20054;-78
2022/04/09 14:33:52;;;;;;;7.13;1.30;;;;;;;;;;4975658;28;20137;-77
2022/04/09 14:36:19;;;;;;;4.40;1.20;;;;;;;;;;4975934;28;20499;-77
2022/04/09 14:38:45;;;;;;;5.53;1.20;;;;;;;;;;4976550;28;20409;-78
2022/04/09 14:41:12;;;;;;;4.40;1.33;;;;;;;;;;4976930;28;20404;-77
2022/04/09 14:43:38;;;;;;;5.70;1.40;;;;;;;;;;4975562;28;20078;-77
2022/04/09 14:46:05;;;;;;;4.93;1.13;;;;;;;;;;4976536;28;20430;-77
2022/04/09 14:48:33;;;;;;;6.70;1.20;;;;;;;;;;4976031;28;20054;-77
2022/04/09 14:51:01;;;;;;;4.75;1.13;;;;;;;;;;4976338;28;20046;-77
2022/04/09 14:53:28;;;;;;;4.05;1.42;;;;;;;;;;4975511;28;20051;-77
2022/04/09 14:55:54;;;;;;;5.07;1.10;;;;;;;;;;4977271;28;20047;-77
2022/04/09 14:58:21;;;;;;;4.90;1.38;;;;;;;;;;4976369;28;20057;-77
2022/04/09 15:00:48;;;;;;;4.68;1.10;;;;;;;;;;4976058;28;20074;-78
2022/04/09 15:03:14;;;;;;;5.63;1.45;;;;;;;;;;4974899;28;20061;-77
2022/04/09 15:05:41;;;;;;;6.10;1.30;;;;;;;;;;4976576;28;20524;-77
2022/04/09 15:08:09;;;;;;;4.40;1.20;;;;;;;;;;4976613;28;20058;-78
2022/04/09 15:10:35;;;;;;;5.75;1.30;;;;;;;;;;4977852;28;20061;-78
2022/04/09 15:13:02;;;;;;;5.07;1.15;;;;;;;;;;4979840;28;20061;-77